Time;durP1;ratioP1;P1;durP2;ratioP2;P2;SDS_P1;SDS_P2;PMS_P1;PMS_P2;Temp;Humidity;BMP_temperature;BMP_pressure;BME280_temperature;BME280_humidity;BME280_pressure;Samples;Min_cycle;Max_cycle;Signal;HPM_P1;HPM_P2
2021/08/16 00:02:25;;;;;;;15.60;6.00;;;;;;;15.41;100.00;100768.09;1773904;80;20976;-41
2021/08/16 00:04:53;;;;;;;19.57;6.50;;;;;;;15.35;100.00;100765.70;1773746;80;21138;-41
2021/08/16 00:07:19;;;;;;;22.15;7.40;;;;;;;15.29;100.00;100773.73;1773542;80;21298;-40
2021/08/16 00:09:48;;;;;;;25.68;6.65;;;;;;;15.20;100.00;100766.59;1778964;80;21019;-39
2021/08/16 00:12:16;;;;;;;27.65;7.03;;;;;;;15.13;100.00;100762.49;1779758;80;20971;-40
2021/08/16 00:14:45;;;;;;;20.65;7.40;;;;;;;15.07;100.00;100767.45;1779554;80;20942;-40
2021/08/16 00:17:12;;;;;;;19.98;6.53;;;;;;;15.01;100.00;100767.66;1779542;80;21165;-40
2021/08/16 00:19:40;;;;;;;27.20;7.62;;;;;;;14.95;100.00;100771.77;1750875;80;21475;-40
2021/08/16 00:22:07;;;;;;;27.20;7.25;;;;;;;14.89;100.00;100771.50;1750827;80;21509;-41
2021/08/16 00:24:33;;;;;;;29.50;8.18;;;;;;;14.85;100.00;100759.47;1779269;80;20976;-40
2021/08/16 00:27:01;;;;;;;34.20;7.95;;;;;;;14.83;100.00;100765.19;1779622;80;21014;-40
2021/08/16 00:29:30;;;;;;;21.65;7.17;;;;;;;14.79;100.00;100767.48;1779596;80;21363;-40
2021/08/16 00:31:58;;;;;;;51.90;9.68;;;;;;;14.76;100.00;100767.55;1779337;80;20948;-39
2021/08/16 00:34:25;;;;;;;23.80;6.83;;;;;;;14.71;100.00;100764.25;1779630;80;20995;-39
2021/08/16 00:36:53;;;;;;;27.62;7.22;;;;;;;14.66;100.00;100754.80;1751361;80;20975;-40
2021/08/16 00:39:19;;;;;;;29.05;6.33;;;;;;;14.63;100.00;100753.59;1779772;80;20951;-40
2021/08/16 00:41:48;;;;;;;27.45;6.80;;;;;;;14.59;100.00;100752.42;1779594;80;21026;-39
2021/08/16 00:44:15;;;;;;;34.60;8.00;;;;;;;14.54;100.00;100759.09;1779598;80;20967;-39
2021/08/16 00:46:42;;;;;;;50.65;9.45;;;;;;;14.51;100.00;100756.55;1779660;80;21011;-39
2021/08/16 00:49:08;;;;;;;54.88;9.88;;;;;;;14.50;100.00;100756.15;1779970;80;20939;-39
2021/08/16 00:51:36;;;;;;;72.55;10.75;;;;;;;14.51;100.00;100757.42;1779446;80;21537;-40
2021/08/16 00:54:04;;;;;;;64.27;10.38;;;;;;;14.53;100.00;100758.69;1779779;80;21109;-40
2021/08/16 00:56:35;;;;;;;69.53;10.40;;;;;;;14.54;100.00;100754.31;1779439;80;20920;-40
2021/08/16 00:59:05;;;;;;;71.57;9.90;;;;;;;14.56;100.00;100749.48;1779717;80;21011;-40
2021/08/16 01:01:33;;;;;;;49.33;9.13;;;;;;;14.56;100.00;100745.56;1779497;80;20953;-40
2021/08/16 01:04:00;;;;;;;60.48;9.90;;;;;;;14.57;100.00;100745.10;1779412;80;21039;-39
2021/08/16 01:06:27;;;;;;;56.20;9.05;;;;;;;14.54;100.00;100736.95;1779644;80;21116;-40
2021/08/16 01:08:54;;;;;;;70.12;9.80;;;;;;;14.53;100.00;100737.85;1739811;81;20935;-40
2021/08/16 01:11:21;;;;;;;41.55;9.25;;;;;;;14.51;100.00;100739.63;1723754;81;20999;-40
2021/08/16 01:13:50;;;;;;;41.70;9.05;;;;;;;14.51;100.00;100744.83;1753352;81;21580;-40
2021/08/16 01:16:18;;;;;;;42.60;9.55;;;;;;;14.51;100.00;100746.13;1723957;81;21540;-40
2021/08/16 01:18:46;;;;;;;36.05;9.23;;;;;;;14.49;100.00;100741.42;1753425;81;21149;-40
2021/08/16 01:21:14;;;;;;;27.25;7.45;;;;;;;14.49;100.00;100742.29;1753240;81;20967;-40
2021/08/16 01:23:41;;;;;;;35.95;7.12;;;;;;;14.50;100.00;100744.42;1753651;81;20979;-40
2021/08/16 01:26:09;;;;;;;38.83;9.35;;;;;;;14.53;100.00;100748.27;1753362;81;20955;-40
2021/08/16 01:28:37;;;;;;;20.35;7.15;;;;;;;14.55;100.00;100751.67;1753395;81;20889;-40
2021/08/16 01:31:05;;;;;;;35.13;7.87;;;;;;;14.55;100.00;100749.07;1753699;81;21941;-40
2021/08/16 01:33:33;;;;;;;21.93;7.05;;;;;;;14.55;100.00;100741.26;1753590;81;20940;-40
2021/08/16 01:36:00;;;;;;;39.73;7.37;;;;;;;14.55;100.00;100741.26;1723318;81;21512;-40
2021/08/16 01:38:32;;;;;;;31.70;7.80;;;;;;;14.56;100.00;100743.39;1723381;81;20920;-40
2021/08/16 01:40:59;;;;;;;33.60;8.13;;;;;;;14.54;100.00;100751.28;1723870;81;21569;-40
2021/08/16 01:43:26;;;;;;;34.55;7.62;;;;;;;14.52;100.00;100747.83;1753330;79;21106;-41
2021/08/16 01:45:52;;;;;;;33.25;8.70;;;;;;;14.49;100.00;100747.50;1753487;80;20940;-40
2021/08/16 01:48:19;;;;;;;50.12;9.33;;;;;;;14.46;100.00;100746.30;1723502;81;20950;-40
2021/08/16 01:50:46;;;;;;;29.18;7.80;;;;;;;14.46;100.00;100750.63;1753374;81;20980;-40
2021/08/16 01:53:13;;;;;;;15.32;6.53;;;;;;;14.43;100.00;100746.82;1753652;79;21023;-40
2021/08/16 01:55:41;;;;;;;13.32;6.67;;;;;;;14.49;100.00;100751.84;1753119;81;21899;-40
2021/08/16 01:58:08;;;;;;;22.50;6.20;;;;;;;14.61;100.00;100752.78;1753126;81;20935;-40
2021/08/16 02:00:35;;;;;;;13.05;5.58;;;;;;;14.73;100.00;100752.02;1723578;81;20983;-40
2021/08/16 02:03:01;;;;;;;13.90;5.80;;;;;;;14.82;100.00;100748.28;1753298;81;21023;-40
2021/08/16 02:05:27;;;;;;;19.27;7.10;;;;;;;14.89;100.00;100752.39;1753433;79;20963;-40
2021/08/16 02:07:54;;;;;;;13.78;6.67;;;;;;;14.94;100.00;100746.14;1753302;81;21470;-40
2021/08/16 02:10:23;;;;;;;18.85;6.90;;;;;;;14.96;100.00;100748.70;1771300;80;21035;-40
2021/08/16 02:12:49;;;;;;;14.40;6.62;;;;;;;14.94;100.00;100744.00;1773570;80;20905;-40
2021/08/16 02:15:16;;;;;;;15.18;6.47;;;;;;;14.92;100.00;100751.02;1773558;80;20968;-40
2021/08/16 02:17:42;;;;;;;20.17;7.83;;;;;;;14.88;100.00;100759.81;1773645;80;20979;-40
2021/08/16 02:20:11;;;;;;;10.82;5.50;;;;;;;14.83;100.00;100761.27;1773545;80;21073;-40
2021/08/16 02:22:37;;;;;;;14.05;5.70;;;;;;;14.74;100.00;100753.30;1773678;80;20988;-40
2021/08/16 02:25:05;;;;;;;14.23;6.70;;;;;;;14.66;100.00;100754.80;1773507;80;20924;-40
2021/08/16 02:27:32;;;;;;;14.85;5.55;;;;;;;14.60;100.00;100754.98;1773439;80;20976;-40
2021/08/16 02:29:59;;;;;;;13.08;5.90;;;;;;;14.54;100.00;100755.19;1773580;80;20952;-40
2021/08/16 02:32:25;;;;;;;12.75;5.80;;;;;;;14.49;100.00;100753.14;1773879;80;20981;-40
2021/08/16 02:34:53;;;;;;;15.35;6.12;;;;;;;14.46;100.00;100749.33;1751604;80;21613;-40
2021/08/16 02:37:19;;;;;;;23.67;6.25;;;;;;;14.42;100.00;100749.02;1773759;80;20964;-40
2021/08/16 02:39:45;;;;;;;18.15;6.80;;;;;;;14.40;100.00;100749.09;1773657;80;20928;-40
2021/08/16 02:42:12;;;;;;;12.60;6.10;;;;;;;14.42;100.00;100748.59;1773454;80;21030;-40
2021/08/16 02:44:39;;;;;;;11.48;6.20;;;;;;;14.40;100.00;100749.09;1773495;80;21108;-40
2021/08/16 02:47:05;;;;;;;10.75;5.22;;;;;;;14.36;100.00;100753.95;1773198;80;21529;-40
2021/08/16 02:49:32;;;;;;;16.00;5.87;;;;;;;14.34;100.00;100763.13;1773480;80;20909;-40
2021/08/16 02:51:58;;;;;;;14.45;6.15;;;;;;;14.35;100.00;100762.66;1773821;80;20971;-40
2021/08/16 02:54:25;;;;;;;12.30;6.12;;;;;;;14.38;100.00;100756.06;1773646;80;20921;-40
2021/08/16 02:56:51;;;;;;;11.70;5.55;;;;;;;14.42;100.00;100761.61;1773641;80;21095;-39
2021/08/16 02:59:17;;;;;;;15.43;6.15;;;;;;;14.44;100.00;100757.64;1773933;80;20972;-40
2021/08/16 03:01:44;;;;;;;8.93;5.10;;;;;;;14.44;100.00;100754.60;1773770;80;21028;-40
2021/08/16 03:04:11;;;;;;;19.75;5.72;;;;;;;14.43;100.00;100762.45;1774016;80;20929;-41
2021/08/16 03:06:37;;;;;;;7.42;5.33;;;;;;;14.40;100.00;100754.73;1773739;80;21031;-40
2021/08/16 03:09:04;;;;;;;7.00;5.50;;;;;;;14.35;100.00;100760.06;1774921;80;21285;-40
2021/08/16 03:11:30;;;;;;;9.00;5.30;;;;;;;14.31;100.00;100767.13;1751094;80;21019;-40
2021/08/16 03:13:57;;;;;;;8.88;5.10;;;;;;;14.30;100.00;100764.56;1779586;80;21102;-40
2021/08/16 03:16:24;;;;;;;10.30;5.20;;;;;;;14.28;100.00;100764.62;1779621;80;20988;-40
2021/08/16 03:18:52;;;;;;;8.45;5.78;;;;;;;14.27;100.00;100764.19;1779560;80;20932;-40
2021/08/16 03:21:18;;;;;;;14.80;6.17;;;;;;;14.27;100.00;100766.79;1779590;80;21140;-40
2021/08/16 03:23:45;;;;;;;9.95;5.17;;;;;;;14.28;100.00;100763.32;1779552;80;20963;-40
2021/08/16 03:26:12;;;;;;;10.93;5.50;;;;;;;14.32;100.00;100763.63;1779523;80;21013;-41
2021/08/16 03:28:38;;;;;;;12.07;5.70;;;;;;;14.36;100.00;100759.16;1779468;80;21062;-38
2021/08/16 03:31:05;;;;;;;9.00;5.67;;;;;;;14.42;100.00;100765.52;1751301;80;21545;-39
2021/08/16 03:33:31;;;;;;;11.75;5.65;;;;;;;14.54;100.00;100770.81;1779528;80;22838;-41
2021/08/16 03:35:58;;;;;;;13.20;5.75;;;;;;;14.64;100.00;100768.75;1779398;80;21471;-39
2021/08/16 03:38:24;;;;;;;9.30;5.30;;;;;;;14.73;100.00;100775.47;1750918;80;21023;-41
2021/08/16 03:40:51;;;;;;;13.80;6.22;;;;;;;14.84;100.00;100778.61;1779644;80;20983;-42
2021/08/16 03:43:17;;;;;;;8.33;5.62;;;;;;;14.94;100.00;100775.27;1779331;80;20944;-42
2021/08/16 03:45:45;;;;;;;10.13;5.00;;;;;;;15.05;100.00;100779.68;1779696;80;21771;-38
2021/08/16 03:48:12;;;;;;;16.30;5.92;;;;;;;15.17;100.00;100781.05;1779325;80;21011;-39
2021/08/16 03:50:38;;;;;;;29.32;7.20;;;;;;;15.29;100.00;100782.86;1779824;80;20972;-41
2021/08/16 03:53:05;;;;;;;20.02;7.60;;;;;;;15.41;100.00;100777.22;1779388;80;20877;-41
2021/08/16 03:55:32;;;;;;;33.18;8.13;;;;;;;15.59;100.00;100778.34;1779804;80;20983;-41
2021/08/16 03:57:59;;;;;;;26.20;6.03;;;;;;;15.78;100.00;100774.64;1779450;80;21058;-41
2021/08/16 04:00:25;;;;;;;21.37;6.40;;;;;;;15.99;100.00;100770.06;1779646;80;21517;-39
2021/08/16 04:02:51;;;;;;;23.92;6.90;;;;;;;16.25;100.00;100773.48;1779458;80;22260;-39
2021/08/16 04:05:18;;;;;;;18.32;6.95;;;;;;;16.59;100.00;100772.19;1779640;80;21580;-39
2021/08/16 04:07:44;;;;;;;31.30;6.50;;;;;;;16.91;100.00;100765.70;1779325;80;20920;-39
2021/08/16 04:10:12;;;;;;;26.00;6.95;;;;;;;17.27;100.00;100764.73;1780738;80;21920;-39
2021/08/16 04:12:41;;;;;;;19.00;6.37;;;;;;;17.64;100.00;100771.05;1782033;80;21496;-39
2021/08/16 04:15:16;;;;;;;25.37;6.83;;;;;;;18.04;100.00;100775.85;1782187;80;20967;-41
2021/08/16 04:17:44;;;;;;;31.23;6.25;;;;;;;18.49;100.00;100779.53;1782165;79;20940;-39
2021/08/16 04:20:12;;;;;;;25.23;6.15;;;;;;;18.94;100.00;100780.03;1753455;80;20975;-40
2021/08/16 04:22:38;;;;;;;23.30;6.42;;;;;;;19.33;100.00;100775.09;1782177;80;21850;-40
2021/08/16 04:25:08;;;;;;;23.83;6.50;;;;;;;19.72;100.00;100775.77;1782215;80;20932;-40
2021/08/16 04:27:34;;;;;;;55.98;9.03;;;;;;;20.13;100.00;100779.79;1729559;80;20976;-40
2021/08/16 04:30:01;;;;;;;27.70;7.95;;;;;;;20.50;98.91;100779.11;1782035;79;20964;-40
2021/08/16 04:32:27;;;;;;;37.83;8.90;;;;;;;20.85;97.10;100787.77;1782137;80;21014;-40
2021/08/16 04:34:55;;;;;;;33.48;8.73;;;;;;;21.15;94.94;100794.39;1782176;80;21171;-40
2021/08/16 04:37:21;;;;;;;49.60;10.55;;;;;;;21.48;92.83;100796.46;1782071;80;20968;-40
2021/08/16 04:39:48;;;;;;;32.15;8.25;;;;;;;21.78;90.77;100793.79;1782521;79;21022;-40
2021/08/16 04:42:14;;;;;;;23.12;7.03;;;;;;;22.15;88.03;100795.12;1753349;80;20952;-40
2021/08/16 04:44:42;;;;;;;36.23;8.05;;;;;;;22.40;85.15;100790.47;1782028;80;20881;-40
2021/08/16 04:47:09;;;;;;;31.60;7.10;;;;;;;22.52;82.25;100796.78;1782255;80;21826;-40
2021/08/16 04:49:36;;;;;;;31.00;7.15;;;;;;;22.58;79.73;100802.16;1782461;79;21010;-40
2021/08/16 04:52:04;;;;;;;16.85;5.95;;;;;;;22.64;78.74;100800.44;1753535;80;21588;-40
2021/08/16 04:54:30;;;;;;;17.45;6.25;;;;;;;22.72;77.16;100797.31;1782519;80;20979;-40
2021/08/16 04:56:57;;;;;;;10.70;5.25;;;;;;;22.82;74.79;100792.66;1782181;80;22053;-41
2021/08/16 04:59:23;;;;;;;5.95;5.45;;;;;;;22.82;72.97;100792.66;1753673;80;21837;-40
2021/08/16 05:01:50;;;;;;;10.80;5.47;;;;;;;22.77;72.31;100796.08;1781986;80;20983;-40
2021/08/16 05:04:17;;;;;;;12.63;5.85;;;;;;;22.80;71.69;100789.27;1782452;80;20936;-41
2021/08/16 05:06:43;;;;;;;6.30;4.87;;;;;;;22.84;68.69;100791.71;1782475;80;20940;-40
2021/08/16 05:09:10;;;;;;;16.27;5.83;;;;;;;22.95;68.33;100797.13;1782132;80;20960;-41
2021/08/16 05:11:38;;;;;;;8.68;5.05;;;;;;;23.16;68.06;100790.92;1782102;79;21131;-41
2021/08/16 05:14:06;;;;;;;9.40;5.08;;;;;;;23.51;67.16;100795.64;1781962;80;20963;-41
2021/08/16 05:16:34;;;;;;;11.85;5.22;;;;;;;23.86;65.71;100799.92;1782231;80;21003;-40
2021/08/16 05:19:01;;;;;;;9.33;5.20;;;;;;;24.11;64.08;100802.57;1782220;80;21027;-41
2021/08/16 05:21:30;;;;;;;6.83;5.15;;;;;;;24.28;64.05;100797.90;1781997;80;21532;-40
2021/08/16 05:23:56;;;;;;;12.43;5.37;;;;;;;24.39;63.25;100801.96;1729786;80;21144;-40
2021/08/16 05:26:23;;;;;;;13.83;5.03;;;;;;;24.52;63.49;100805.03;1781922;80;20972;-41
2021/08/16 05:28:51;;;;;;;12.95;4.97;;;;;;;24.59;62.96;100800.98;1782044;80;20979;-41
2021/08/16 05:31:17;;;;;;;11.65;5.15;;;;;;;24.56;62.40;100801.20;1782329;79;20920;-41
2021/08/16 05:33:44;;;;;;;20.20;5.15;;;;;;;24.49;62.48;100802.11;1753613;80;21034;-40
2021/08/16 05:36:10;;;;;;;9.13;5.22;;;;;;;24.39;62.38;100805.07;1782186;79;21152;-41
2021/08/16 05:38:37;;;;;;;18.27;5.37;;;;;;;24.26;62.21;100817.00;1782003;80;21015;-40
2021/08/16 05:41:03;;;;;;;19.80;5.33;;;;;;;24.10;62.49;100816.75;1782208;79;20999;-40
2021/08/16 05:43:31;;;;;;;14.35;4.90;;;;;;;23.93;63.50;100818.39;1782185;80;20932;-40
2021/08/16 05:45:58;;;;;;;16.80;5.55;;;;;;;23.72;63.95;100813.63;1782354;80;20913;-40
2021/08/16 05:48:24;;;;;;;6.17;4.90;;;;;;;23.54;64.96;100814.41;1782156;80;21136;-40
2021/08/16 05:50:51;;;;;;;6.40;4.72;;;;;;;23.43;65.40;100812.95;1781783;80;20983;-41
2021/08/16 05:53:17;;;;;;;7.00;4.60;;;;;;;23.28;64.19;100811.73;1782195;80;20944;-40
2021/08/16 05:55:45;;;;;;;4.90;4.20;;;;;;;23.21;63.36;100809.93;1782260;80;21655;-41
2021/08/16 05:58:12;;;;;;;14.80;4.90;;;;;;;23.19;61.77;100809.19;1782224;80;21525;-40
2021/08/16 06:00:38;;;;;;;9.15;4.25;;;;;;;23.22;60.71;100815.58;1782063;79;21812;-40
2021/08/16 06:03:05;;;;;;;8.40;5.00;;;;;;;23.29;59.11;100816.06;1781890;80;20960;-40
2021/08/16 06:05:33;;;;;;;5.00;4.50;;;;;;;23.35;60.79;100814.78;1782216;79;20987;-41
2021/08/16 06:07:59;;;;;;;9.65;4.42;;;;;;;23.37;59.91;100808.95;1782229;80;20972;-41
2021/08/16 06:10:26;;;;;;;5.90;4.37;;;;;;;23.49;60.40;100820.00;1780816;80;21717;-42
2021/08/16 06:12:52;;;;;;;7.25;4.20;;;;;;;23.62;61.26;100813.87;1779372;80;21712;-41
2021/08/16 06:15:20;;;;;;;8.30;4.15;;;;;;;23.72;60.44;100817.59;1779179;80;21587;-41
2021/08/16 06:17:47;;;;;;;12.58;4.50;;;;;;;23.86;60.31;100816.64;1779831;80;20976;-42
2021/08/16 06:20:13;;;;;;;5.67;4.50;;;;;;;23.98;61.82;100814.94;1779331;80;20972;-41
2021/08/16 06:22:41;;;;;;;10.40;4.40;;;;;;;24.10;61.55;100804.02;1779452;80;20940;-42
2021/08/16 06:25:10;;;;;;;6.62;4.25;;;;;;;24.22;60.97;100806.27;1779308;80;21207;-41
2021/08/16 06:27:36;;;;;;;4.80;4.33;;;;;;;24.29;61.46;100814.13;1779401;80;20983;-41
2021/08/16 06:30:04;;;;;;;9.25;4.90;;;;;;;24.43;59.86;100809.17;1779531;80;21030;-41
2021/08/16 06:32:32;;;;;;;6.22;4.22;;;;;;;24.59;58.05;100804.95;1751437;80;20967;-41
2021/08/16 06:35:00;;;;;;;8.65;4.22;;;;;;;24.76;58.15;100809.53;1779674;80;21019;-41
2021/08/16 06:37:27;;;;;;;4.60;4.00;;;;;;;24.91;56.96;100807.09;1779333;80;21027;-41
2021/08/16 06:39:54;;;;;;;5.35;3.65;;;;;;;25.11;52.23;100812.69;1779424;80;20976;-42
2021/08/16 06:42:20;;;;;;;5.20;3.62;;;;;;;25.28;51.34;100809.27;1779397;80;20972;-41
2021/08/16 06:44:46;;;;;;;11.43;3.92;;;;;;;25.44;51.64;100808.94;1779813;80;21030;-41
2021/08/16 06:47:14;;;;;;;8.33;3.85;;;;;;;25.53;52.36;100806.47;1779585;80;21015;-40
2021/08/16 06:49:41;;;;;;;4.40;3.87;;;;;;;25.58;50.53;100804.80;1779605;80;21871;-40
2021/08/16 06:52:08;;;;;;;4.87;3.70;;;;;;;25.69;50.53;100805.30;1779615;80;21627;-40
2021/08/16 06:54:35;;;;;;;4.10;3.62;;;;;;;25.81;49.91;100809.64;1779456;80;20929;-42
2021/08/16 06:57:02;;;;;;;10.88;3.80;;;;;;;25.93;48.53;100801.70;1779817;80;21449;-42
2021/08/16 06:59:29;;;;;;;7.22;3.60;;;;;;;26.06;48.94;100809.54;1779896;80;21540;-42
2021/08/16 07:01:56;;;;;;;7.37;3.37;;;;;;;26.21;49.01;100809.66;1779477;80;21928;-43
2021/08/16 07:04:23;;;;;;;6.72;3.85;;;;;;;26.35;48.54;100804.59;1750949;80;21559;-42
2021/08/16 07:06:50;;;;;;;7.30;3.60;;;;;;;26.54;47.16;100801.31;1779522;80;20932;-39
2021/08/16 07:09:16;;;;;;;8.98;4.20;;;;;;;26.65;46.91;100805.75;1779300;80;20959;-40
2021/08/16 07:11:43;;;;;;;5.12;4.08;;;;;;;26.76;48.53;100800.86;1774968;80;20905;-40
2021/08/16 07:14:09;;;;;;;8.50;3.70;;;;;;;26.80;49.03;100807.63;1773845;80;21947;-40
2021/08/16 07:16:37;;;;;;;9.03;4.72;;;;;;;26.85;49.63;100805.94;1773708;80;21024;-41
2021/08/16 07:19:03;;;;;;;13.75;4.17;;;;;;;26.89;48.04;100806.04;1773931;80;21565;-40
2021/08/16 07:21:29;;;;;;;6.10;3.60;;;;;;;26.95;47.70;100792.28;1773609;80;20952;-41
2021/08/16 07:23:57;;;;;;;4.55;3.42;;;;;;;27.06;48.26;100794.52;1773935;80;21018;-41
2021/08/16 07:26:24;;;;;;;4.20;3.80;;;;;;;27.19;47.63;100797.84;1773966;80;21749;-41
2021/08/16 07:28:50;;;;;;;11.97;4.20;;;;;;;27.35;47.72;100791.22;1773374;80;20937;-41
2021/08/16 07:31:17;;;;;;;6.03;4.70;;;;;;;27.47;46.53;100792.85;1773866;80;20972;-41
2021/08/16 07:33:44;;;;;;;4.62;4.20;;;;;;;27.71;45.46;100795.74;1773862;80;21489;-41
2021/08/16 07:36:10;;;;;;;7.25;4.10;;;;;;;27.89;45.66;100798.61;1751207;80;21569;-41
2021/08/16 07:38:37;;;;;;;13.30;3.50;;;;;;;27.94;42.36;100795.06;1773837;80;21128;-41
2021/08/16 07:41:03;;;;;;;4.15;3.47;;;;;;;28.01;44.29;100795.84;1773771;80;21046;-41
2021/08/16 07:43:30;;;;;;;6.97;3.72;;;;;;;28.13;42.66;100796.59;1773876;80;20948;-41
2021/08/16 07:45:57;;;;;;;8.60;4.53;;;;;;;28.20;43.42;100795.12;1773815;80;20913;-42
2021/08/16 07:48:23;;;;;;;5.83;4.35;;;;;;;28.40;43.15;100789.35;1774121;80;20996;-41
2021/08/16 07:50:51;;;;;;;7.05;3.60;;;;;;;28.64;42.36;100790.28;1773774;80;21023;-41
2021/08/16 07:53:18;;;;;;;6.20;3.20;;;;;;;28.93;40.26;100784.66;1773787;80;20980;-43
2021/08/16 07:55:45;;;;;;;7.65;3.33;;;;;;;29.09;39.63;100783.61;1773874;80;21015;-41
2021/08/16 07:58:12;;;;;;;6.80;3.62;;;;;;;29.21;41.11;100782.10;1751683;80;21486;-41
2021/08/16 08:00:38;;;;;;;17.62;3.90;;;;;;;29.34;40.01;100783.13;1773865;80;21485;-41
2021/08/16 08:03:05;;;;;;;11.25;3.30;;;;;;;29.51;37.59;100780.23;1773676;80;21905;-42
2021/08/16 08:05:33;;;;;;;4.30;3.62;;;;;;;29.83;37.40;100779.84;1773777;80;21462;-42
2021/08/16 08:08:00;;;;;;;10.50;4.22;;;;;;;30.10;36.35;100782.20;1773786;80;21071;-42
2021/08/16 08:10:26;;;;;;;7.40;3.45;;;;;;;30.34;34.89;100778.65;1773705;80;21501;-41
2021/08/16 08:12:53;;;;;;;5.37;3.58;;;;;;;30.54;35.60;100780.17;1751783;80;21055;-42
2021/08/16 08:15:20;;;;;;;9.13;3.58;;;;;;;30.75;34.58;100776.91;1751535;80;21541;-41
2021/08/16 08:17:47;;;;;;;4.70;3.40;;;;;;;31.02;34.74;100773.78;1751669;80;21080;-41
2021/08/16 08:20:14;;;;;;;5.95;3.17;;;;;;;31.25;35.96;100772.31;1751843;80;21022;-41
2021/08/16 08:22:41;;;;;;;12.13;3.22;;;;;;;31.39;35.89;100781.59;1773836;80;20968;-41
2021/08/16 08:25:08;;;;;;;14.75;3.40;;;;;;;31.47;34.19;100779.47;1773729;80;21016;-41
2021/08/16 08:27:35;;;;;;;11.85;3.92;;;;;;;31.49;35.92;100777.48;1773763;80;21789;-42
2021/08/16 08:30:01;;;;;;;7.37;3.20;;;;;;;31.41;36.12;100775.25;1773492;80;20964;-42
2021/08/16 08:32:28;;;;;;;6.40;3.30;;;;;;;31.29;35.83;100774.67;1773730;80;21024;-42
2021/08/16 08:34:54;;;;;;;11.65;3.55;;;;;;;31.34;37.41;100768.35;1773602;80;21007;-42
2021/08/16 08:37:21;;;;;;;10.63;3.77;;;;;;;31.43;36.56;100767.39;1773674;80;20937;-42
2021/08/16 08:39:47;;;;;;;6.60;3.40;;;;;;;31.52;34.90;100766.94;1773486;80;21103;-40
2021/08/16 08:42:14;;;;;;;7.40;3.58;;;;;;;31.71;35.42;100769.05;1773419;80;20956;-40
2021/08/16 08:44:42;;;;;;;9.23;4.00;;;;;;;31.91;35.95;100771.00;1773482;80;20967;-40
2021/08/16 08:47:09;;;;;;;20.17;4.30;;;;;;;32.01;36.35;100767.71;1751388;80;20984;-41
2021/08/16 08:49:35;;;;;;;15.50;4.30;;;;;;;31.91;36.58;100765.65;1773950;80;21026;-41
2021/08/16 08:52:04;;;;;;;13.18;3.62;;;;;;;31.84;34.40;100765.97;1773697;80;21195;-41
2021/08/16 08:54:34;;;;;;;12.15;3.50;;;;;;;31.86;35.49;100772.84;1773860;80;20956;-40
2021/08/16 08:57:01;;;;;;;12.15;3.37;;;;;;;31.96;36.40;100768.19;1773663;80;20991;-41
2021/08/16 08:59:27;;;;;;;15.03;3.95;;;;;;;32.02;36.00;100768.05;1773982;80;21023;-41
2021/08/16 09:01:56;;;;;;;14.80;3.70;;;;;;;31.91;32.38;100772.34;1773731;80;20893;-40
2021/08/16 09:04:23;;;;;;;9.03;3.50;;;;;;;31.57;33.44;100769.98;1773748;80;21369;-41
2021/08/16 09:06:49;;;;;;;9.30;4.08;;;;;;;31.48;34.06;100773.13;1773471;80;21248;-41
2021/08/16 09:09:16;;;;;;;9.28;3.83;;;;;;;31.54;33.04;100772.48;1751895;80;21544;-40
2021/08/16 09:11:49;;;;;;;16.70;3.83;;;;;;;31.69;34.06;100767.86;1776876;80;21478;-41
2021/08/16 09:14:17;;;;;;;11.28;3.67;;;;;;;31.72;32.00;100760.88;1779492;80;20967;-41
2021/08/16 09:16:46;;;;;;;15.30;3.72;;;;;;;31.63;31.95;100755.14;1779504;80;20940;-41
2021/08/16 09:19:23;;;;;;;15.90;3.40;;;;;;;31.60;32.23;100750.96;1779391;80;21006;-42
2021/08/16 09:22:04;;;;;;;11.10;3.70;;;;;;;31.74;31.85;100745.51;1779473;80;21011;-42
2021/08/16 09:24:30;;;;;;;10.25;3.62;;;;;;;31.94;31.88;100738.56;1749918;80;21003;-41
2021/08/16 09:27:10;;;;;;;19.23;3.90;;;;;;;32.18;30.82;100732.94;1779697;80;20975;-42
2021/08/16 09:29:39;;;;;;;15.25;3.40;;;;;;;32.25;29.15;100727.29;1779279;80;21175;-41
2021/08/16 09:32:07;;;;;;;19.87;4.25;;;;;;;32.34;29.67;100724.98;1750151;80;21006;-41
2021/08/16 09:34:47;;;;;;;11.22;4.00;;;;;;;32.40;29.39;100726.17;1779372;80;21496;-41
2021/08/16 09:37:22;;;;;;;14.05;3.87;;;;;;;32.49;30.55;100725.67;1779588;80;21723;-41
2021/08/16 09:40:02;;;;;;;10.23;4.17;;;;;;;32.48;28.55;100724.00;1749484;80;21683;-41
2021/08/16 09:42:51;;;;;;;10.08;3.47;;;;;;;32.32;28.49;100719.41;1779239;80;21196;-41
2021/08/16 09:45:39;;;;;;;12.00;3.80;;;;;;;32.14;29.33;100726.25;1779337;80;20924;-40
2021/08/16 09:48:07;;;;;;;10.25;3.80;;;;;;;32.36;31.48;100719.47;1779495;80;20944;-41
2021/08/16 09:50:41;;;;;;;11.18;3.42;;;;;;;32.55;29.07;100722.33;1779349;80;21461;-41
2021/08/16 09:53:13;;;;;;;15.43;3.62;;;;;;;32.60;29.79;100716.48;1779592;80;21235;-43
2021/08/16 09:55:43;;;;;;;15.28;3.72;;;;;;;32.71;29.12;100713.94;1779304;80;20924;-42
2021/08/16 09:58:14;;;;;;;16.90;3.85;;;;;;;32.79;29.26;100717.45;1779542;80;22221;-42
2021/08/16 10:00:43;;;;;;;32.60;3.98;;;;;;;32.80;28.73;100717.78;1779674;80;20936;-42
2021/08/16 10:03:11;;;;;;;95.80;7.35;;;;;;;32.81;27.33;100716.78;1779209;80;21297;-42
2021/08/16 10:05:40;;;;;;;73.83;6.87;;;;;;;32.59;28.84;100718.79;1779405;80;21011;-42
2021/08/16 10:08:09;;;;;;;21.20;4.08;;;;;;;32.65;29.08;100721.64;1779673;80;21853;-42
2021/08/16 10:10:39;;;;;;;13.90;3.55;;;;;;;32.83;28.46;100720.64;1779266;80;21039;-42
2021/08/16 10:13:09;;;;;;;17.35;3.58;;;;;;;33.01;27.57;100718.31;1779323;80;21007;-41
2021/08/16 10:15:42;;;;;;;5.50;3.45;;;;;;;33.16;29.11;100723.30;1779328;80;20975;-41
2021/08/16 10:18:18;;;;;;;15.68;4.10;;;;;;;33.35;27.06;100721.24;1750886;80;21019;-42
2021/08/16 10:20:48;;;;;;;24.60;4.50;;;;;;;33.47;26.62;100725.27;1750923;80;21126;-42
2021/08/16 10:23:23;;;;;;;50.70;5.85;;;;;;;33.30;26.85;100727.11;1779299;80;20975;-42
2021/08/16 10:27:41;;;;;;;18.12;3.65;;;;;;;33.20;27.33;100717.92;1797149;79;22405;-41
2021/08/16 10:30:14;;;;;;;19.98;3.50;;;;;;;33.21;27.32;100719.59;1756959;80;20959;-41
2021/08/16 10:32:41;;;;;;;15.45;3.87;;;;;;;33.23;29.32;100714.07;1756823;81;20960;-42
2021/08/16 10:35:13;;;;;;;14.75;3.45;;;;;;;33.33;29.78;100707.17;1756802;81;20952;-41
2021/08/16 10:37:42;;;;;;;20.52;3.62;;;;;;;33.45;28.71;100705.80;1756920;81;21132;-42
2021/08/16 10:40:22;;;;;;;12.25;3.60;;;;;;;33.65;28.05;100714.79;1723380;83;21003;-41
2021/08/16 10:42:53;;;;;;;17.37;3.67;;;;;;;33.75;26.61;100703.36;1723344;82;20979;-41
2021/08/16 10:45:30;;;;;;;16.70;3.47;;;;;;;33.63;26.10;100707.42;1718626;82;21165;-40
2021/08/16 10:48:05;;;;;;;9.28;3.58;;;;;;;33.47;27.88;100699.80;1707130;81;20975;-41
2021/08/16 10:50:32;;;;;;;;;;;;;;;33.60;25.94;100707.28;1703569;83;20996;-42
2021/08/16 10:53:04;;;;;;;13.72;3.65;;;;;;;33.51;27.80;100706.48;1700711;83;20152;-41
2021/08/16 10:55:39;;;;;;;11.28;3.62;;;;;;;33.56;27.81;100703.77;1702026;83;21071;-41
2021/08/16 10:58:11;;;;;;;32.28;5.22;;;;;;;33.68;27.70;100706.39;1700157;83;21106;-41
2021/08/16 11:00:41;;;;;;;23.65;4.60;;;;;;;33.65;27.30;100697.35;1709070;83;21539;-42
2021/08/16 11:03:07;;;;;;;13.00;3.60;;;;;;;33.43;26.99;100693.08;1697195;83;21003;-41
2021/08/16 11:05:39;;;;;;;9.13;3.45;;;;;;;33.23;27.79;100690.80;1703090;84;21035;-42
2021/08/16 11:08:07;;;;;;;39.45;5.50;;;;;;;33.34;29.57;100689.55;1701117;83;21024;-41
2021/08/16 11:10:44;;;;;;;27.13;5.65;;;;;;;33.27;27.37;100686.42;1710840;83;21569;-41
2021/08/16 11:13:19;;;;;;;;;;;;;;;33.10;28.32;100692.67;1723587;82;21544;-42
2021/08/16 11:15:48;;;;;;;20.60;3.98;;;;;;;33.12;27.31;100684.95;1709925;83;20118;-41
2021/08/16 11:18:19;;;;;;;16.07;3.90;;;;;;;33.11;27.08;100674.73;1708217;84;21545;-42
2021/08/16 11:20:59;;;;;;;37.70;4.75;;;;;;;33.09;27.17;100680.77;1708170;82;22141;-42
2021/08/16 11:23:26;;;;;;;24.10;3.90;;;;;;;33.17;28.65;100676.71;1708339;84;21926;-41